sensor_id;sensor_type;location;lat;lon;timestamp;P1;durP1;ratioP1;P2;durP2;ratioP2
53479;SDS011;56133;51.012;-1.648;2023-01-15T00:01:15;9.55;;;1.08;;
53479;SDS011;56133;51.012;-1.648;2023-01-15T00:04:03;10.88;;;0.95;;
53479;SDS011;56133;51.012;-1.648;2023-01-15T00:06:30;5.80;;;1.05;;
53479;SDS011;56133;51.012;-1.648;2023-01-15T00:08:59;8.45;;;0.85;;
53479;SDS011;56133;51.012;-1.648;2023-01-15T00:11:25;5.55;;;1.20;;
53479;SDS011;56133;51.012;-1.648;2023-01-15T00:13:50;5.22;;;0.80;;
53479;SDS011;56133;51.012;-1.648;2023-01-15T00:16:21;7.47;;;0.70;;
53479;SDS011;56133;51.012;-1.648;2023-01-15T00:18:49;5.78;;;0.68;;
53479;SDS011;56133;51.012;-1.648;2023-01-15T00:21:18;8.15;;;0.90;;
53479;SDS011;56133;51.012;-1.648;2023-01-15T00:23:45;12.25;;;0.95;;
53479;SDS011;56133;51.012;-1.648;2023-01-15T00:26:30;6.80;;;0.60;;
53479;SDS011;56133;51.012;-1.648;2023-01-15T00:31:41;6.03;;;0.90;;
53479;SDS011;56133;51.012;-1.648;2023-01-15T00:34:07;5.90;;;0.45;;
53479;SDS011;56133;51.012;-1.648;2023-01-15T00:36:32;8.10;;;0.50;;
53479;SDS011;56133;51.012;-1.648;2023-01-15T00:38:58;6.10;;;0.98;;
53479;SDS011;56133;51.012;-1.648;2023-01-15T00:41:26;7.78;;;0.95;;
53479;SDS011;56133;51.012;-1.648;2023-01-15T00:43:52;5.75;;;0.50;;
53479;SDS011;56133;51.012;-1.648;2023-01-15T00:46:18;8.02;;;1.60;;
53479;SDS011;56133;51.012;-1.648;2023-01-15T00:48:43;9.93;;;0.63;;
53479;SDS011;56133;51.012;-1.648;2023-01-15T00:51:09;5.03;;;0.50;;
53479;SDS011;56133;51.012;-1.648;2023-01-15T00:53:34;7.18;;;0.60;;
53479;SDS011;56133;51.012;-1.648;2023-01-15T00:56:00;5.65;;;0.70;;
53479;SDS011;56133;51.012;-1.648;2023-01-15T00:58:25;5.53;;;0.95;;
53479;SDS011;56133;51.012;-1.648;2023-01-15T01:00:54;8.57;;;0.70;;
53479;SDS011;56133;51.012;-1.648;2023-01-15T01:03:21;8.38;;;0.60;;
53479;SDS011;56133;51.012;-1.648;2023-01-15T01:05:47;7.40;;;0.90;;
53479;SDS011;56133;51.012;-1.648;2023-01-15T01:08:12;4.65;;;0.40;;
53479;SDS011;56133;51.012;-1.648;2023-01-15T01:10:38;5.43;;;0.55;;
53479;SDS011;56133;51.012;-1.648;2023-01-15T01:13:04;5.72;;;0.57;;
53479;SDS011;56133;51.012;-1.648;2023-01-15T01:15:29;5.15;;;0.70;;
53479;SDS011;56133;51.012;-1.648;2023-01-15T01:17:57;5.45;;;0.40;;
53479;SDS011;56133;51.012;-1.648;2023-01-15T01:20:22;6.28;;;0.93;;
53479;SDS011;56133;51.012;-1.648;2023-01-15T01:22:48;12.45;;;1.45;;
53479;SDS011;56133;51.012;-1.648;2023-01-15T01:25:13;2.65;;;0.47;;
53479;SDS011;56133;51.012;-1.648;2023-01-15T01:27:39;3.25;;;0.30;;
53479;SDS011;56133;51.012;-1.648;2023-01-15T01:30:04;4.50;;;0.35;;
53479;SDS011;56133;51.012;-1.648;2023-01-15T01:32:30;3.60;;;0.55;;
53479;SDS011;56133;51.012;-1.648;2023-01-15T01:34:55;4.68;;;0.43;;
53479;SDS011;56133;51.012;-1.648;2023-01-15T01:37:21;4.97;;;0.40;;
53479;SDS011;56133;51.012;-1.648;2023-01-15T01:39:46;8.27;;;0.50;;
53479;SDS011;56133;51.012;-1.648;2023-01-15T01:42:13;2.88;;;0.40;;
53479;SDS011;56133;51.012;-1.648;2023-01-15T01:47:12;4.82;;;0.52;;
53479;SDS011;56133;51.012;-1.648;2023-01-15T01:49:42;6.25;;;0.32;;
53479;SDS011;56133;51.012;-1.648;2023-01-15T01:52:14;5.38;;;0.57;;
53479;SDS011;56133;51.012;-1.648;2023-01-15T01:54:43;3.88;;;0.52;;
53479;SDS011;56133;51.012;-1.648;2023-01-15T01:57:11;4.78;;;0.52;;
53479;SDS011;56133;51.012;-1.648;2023-01-15T01:59:37;5.50;;;0.63;;
53479;SDS011;56133;51.012;-1.648;2023-01-15T02:02:03;3.75;;;0.40;;
53479;SDS011;56133;51.012;-1.648;2023-01-15T02:04:30;6.88;;;0.80;;
53479;SDS011;56133;51.012;-1.648;2023-01-15T02:06:56;5.43;;;0.50;;
53479;SDS011;56133;51.012;-1.648;2023-01-15T02:09:24;3.67;;;0.70;;
53479;SDS011;56133;51.012;-1.648;2023-01-15T02:11:49;6.32;;;0.40;;
53479;SDS011;56133;51.012;-1.648;2023-01-15T02:14:38;5.18;;;0.38;;
53479;SDS011;56133;51.012;-1.648;2023-01-15T02:22:48;5.78;;;0.60;;
53479;SDS011;56133;51.012;-1.648;2023-01-15T02:28:23;4.20;;;0.70;;
53479;SDS011;56133;51.012;-1.648;2023-01-15T02:30:55;4.75;;;0.50;;
53479;SDS011;56133;51.012;-1.648;2023-01-15T02:33:28;5.60;;;0.50;;
53479;SDS011;56133;51.012;-1.648;2023-01-15T02:35:59;5.72;;;0.40;;
53479;SDS011;56133;51.012;-1.648;2023-01-15T02:38:27;6.78;;;0.70;;
53479;SDS011;56133;51.012;-1.648;2023-01-15T02:40:58;9.15;;;0.50;;
53479;SDS011;56133;51.012;-1.648;2023-01-15T02:43:26;3.88;;;0.50;;
53479;SDS011;56133;51.012;-1.648;2023-01-15T02:45:57;3.17;;;0.85;;
53479;SDS011;56133;51.012;-1.648;2023-01-15T02:48:27;5.88;;;0.40;;
53479;SDS011;56133;51.012;-1.648;2023-01-15T02:50:58;6.97;;;0.85;;
53479;SDS011;56133;51.012;-1.648;2023-01-15T02:53:31;5.93;;;0.85;;
53479;SDS011;56133;51.012;-1.648;2023-01-15T02:56:03;5.95;;;0.45;;
53479;SDS011;56133;51.012;-1.648;2023-01-15T02:58:34;6.25;;;0.45;;
53479;SDS011;56133;51.012;-1.648;2023-01-15T03:01:04;4.88;;;0.68;;
53479;SDS011;56133;51.012;-1.648;2023-01-15T03:06:32;6.78;;;0.63;;
53479;SDS011;56133;51.012;-1.648;2023-01-15T03:09:22;6.20;;;0.60;;
53479;SDS011;56133;51.012;-1.648;2023-01-15T03:15:02;6.15;;;0.60;;
53479;SDS011;56133;51.012;-1.648;2023-01-15T03:17:32;3.17;;;0.30;;
53479;SDS011;56133;51.012;-1.648;2023-01-15T03:20:22;4.13;;;0.57;;
53479;SDS011;56133;51.012;-1.648;2023-01-15T03:22:50;5.85;;;0.40;;
53479;SDS011;56133;51.012;-1.648;2023-01-15T03:25:24;5.30;;;0.77;;
53479;SDS011;56133;51.012;-1.648;2023-01-15T03:27:53;6.88;;;0.75;;
53479;SDS011;56133;51.012;-1.648;2023-01-15T03:30:23;5.45;;;0.30;;
53479;SDS011;56133;51.012;-1.648;2023-01-15T03:32:49;9.93;;;0.70;;
53479;SDS011;56133;51.012;-1.648;2023-01-15T03:38:07;4.80;;;0.40;;
53479;SDS011;56133;51.012;-1.648;2023-01-15T03:40:33;5.95;;;0.80;;
53479;SDS011;56133;51.012;-1.648;2023-01-15T03:43:04;7.70;;;0.70;;
53479;SDS011;56133;51.012;-1.648;2023-01-15T03:45:51;6.55;;;0.55;;
53479;SDS011;56133;51.012;-1.648;2023-01-15T03:50:54;6.50;;;0.50;;
53479;SDS011;56133;51.012;-1.648;2023-01-15T03:53:27;5.88;;;0.63;;
53479;SDS011;56133;51.012;-1.648;2023-01-15T03:56:00;3.72;;;0.47;;
53479;SDS011;56133;51.012;-1.648;2023-01-15T04:01:17;8.63;;;0.70;;
53479;SDS011;56133;51.012;-1.648;2023-01-15T04:03:48;3.83;;;0.40;;
53479;SDS011;56133;51.012;-1.648;2023-01-15T04:06:16;5.80;;;0.57;;
53479;SDS011;56133;51.012;-1.648;2023-01-15T04:08:42;6.82;;;0.50;;
53479;SDS011;56133;51.012;-1.648;2023-01-15T04:11:11;7.68;;;0.60;;
53479;SDS011;56133;51.012;-1.648;2023-01-15T04:13:36;4.43;;;0.60;;
53479;SDS011;56133;51.012;-1.648;2023-01-15T04:16:02;3.75;;;0.50;;
53479;SDS011;56133;51.012;-1.648;2023-01-15T04:18:27;5.45;;;0.25;;
53479;SDS011;56133;51.012;-1.648;2023-01-15T04:20:53;3.13;;;0.40;;
53479;SDS011;56133;51.012;-1.648;2023-01-15T04:23:19;4.10;;;0.20;;
53479;SDS011;56133;51.012;-1.648;2023-01-15T04:25:45;4.00;;;0.40;;
53479;SDS011;56133;51.012;-1.648;2023-01-15T04:28:11;2.78;;;0.70;;
53479;SDS011;56133;51.012;-1.648;2023-01-15T04:30:37;1.90;;;0.28;;
53479;SDS011;56133;51.012;-1.648;2023-01-15T04:33:02;3.10;;;0.20;;
53479;SDS011;56133;51.012;-1.648;2023-01-15T04:35:27;3.70;;;0.30;;
53479;SDS011;56133;51.012;-1.648;2023-01-15T04:37:54;2.58;;;0.40;;
53479;SDS011;56133;51.012;-1.648;2023-01-15T04:40:20;3.10;;;0.20;;
53479;SDS011;56133;51.012;-1.648;2023-01-15T04:43:04;3.80;;;0.25;;
53479;SDS011;56133;51.012;-1.648;2023-01-15T04:45:47;5.57;;;0.30;;
53479;SDS011;56133;51.012;-1.648;2023-01-15T04:48:13;2.90;;;0.40;;
53479;SDS011;56133;51.012;-1.648;2023-01-15T04:50:38;3.45;;;0.20;;
53479;SDS011;56133;51.012;-1.648;2023-01-15T04:53:04;2.58;;;0.30;;
53479;SDS011;56133;51.012;-1.648;2023-01-15T04:55:29;4.20;;;0.32;;
53479;SDS011;56133;51.012;-1.648;2023-01-15T04:57:55;3.97;;;0.30;;
53479;SDS011;56133;51.012;-1.648;2023-01-15T05:00:21;4.57;;;0.40;;
53479;SDS011;56133;51.012;-1.648;2023-01-15T05:02:47;5.25;;;0.30;;
53479;SDS011;56133;51.012;-1.648;2023-01-15T05:05:13;2.63;;;0.40;;
53479;SDS011;56133;51.012;-1.648;2023-01-15T05:07:38;4.90;;;0.20;;
53479;SDS011;56133;51.012;-1.648;2023-01-15T05:10:04;4.05;;;0.45;;
53479;SDS011;56133;51.012;-1.648;2023-01-15T05:12:29;9.23;;;0.50;;
53479;SDS011;56133;51.012;-1.648;2023-01-15T05:14:55;4.40;;;0.45;;
53479;SDS011;56133;51.012;-1.648;2023-01-15T05:17:20;7.47;;;0.45;;
53479;SDS011;56133;51.012;-1.648;2023-01-15T05:19:45;2.05;;;0.30;;
53479;SDS011;56133;51.012;-1.648;2023-01-15T05:22:11;5.82;;;0.30;;
53479;SDS011;56133;51.012;-1.648;2023-01-15T05:24:36;4.15;;;0.30;;
53479;SDS011;56133;51.012;-1.648;2023-01-15T05:27:01;3.17;;;0.40;;
53479;SDS011;56133;51.012;-1.648;2023-01-15T05:29:29;7.40;;;0.50;;
53479;SDS011;56133;51.012;-1.648;2023-01-15T05:31:54;6.13;;;0.50;;
53479;SDS011;56133;51.012;-1.648;2023-01-15T05:34:19;4.38;;;0.50;;
53479;SDS011;56133;51.012;-1.648;2023-01-15T05:36:45;7.80;;;0.45;;
53479;SDS011;56133;51.012;-1.648;2023-01-15T05:39:10;4.97;;;0.40;;
53479;SDS011;56133;51.012;-1.648;2023-01-15T05:41:36;4.28;;;0.30;;
53479;SDS011;56133;51.012;-1.648;2023-01-15T05:44:13;6.32;;;0.68;;
53479;SDS011;56133;51.012;-1.648;2023-01-15T05:46:53;5.30;;;0.47;;
53479;SDS011;56133;51.012;-1.648;2023-01-15T05:49:22;2.83;;;0.30;;
53479;SDS011;56133;51.012;-1.648;2023-01-15T05:51:50;5.70;;;0.63;;
53479;SDS011;56133;51.012;-1.648;2023-01-15T05:54:18;4.03;;;0.40;;
53479;SDS011;56133;51.012;-1.648;2023-01-15T05:56:46;7.30;;;1.02;;
53479;SDS011;56133;51.012;-1.648;2023-01-15T05:59:13;2.55;;;0.28;;
53479;SDS011;56133;51.012;-1.648;2023-01-15T06:01:40;4.35;;;0.52;;
53479;SDS011;56133;51.012;-1.648;2023-01-15T06:04:06;6.47;;;0.50;;
53479;SDS011;56133;51.012;-1.648;2023-01-15T06:06:32;6.50;;;0.50;;
53479;SDS011;56133;51.012;-1.648;2023-01-15T06:08:58;4.95;;;0.40;;
53479;SDS011;56133;51.012;-1.648;2023-01-15T06:11:24;3.92;;;0.40;;
53479;SDS011;56133;51.012;-1.648;2023-01-15T06:13:50;6.75;;;0.47;;
53479;SDS011;56133;51.012;-1.648;2023-01-15T06:16:16;7.82;;;0.50;;
53479;SDS011;56133;51.012;-1.648;2023-01-15T06:18:43;7.53;;;0.65;;
53479;SDS011;56133;51.012;-1.648;2023-01-15T06:21:09;6.32;;;0.40;;
53479;SDS011;56133;51.012;-1.648;2023-01-15T06:23:36;6.35;;;0.50;;
53479;SDS011;56133;51.012;-1.648;2023-01-15T06:26:06;6.97;;;0.50;;
53479;SDS011;56133;51.012;-1.648;2023-01-15T06:28:33;6.93;;;0.60;;
53479;SDS011;56133;51.012;-1.648;2023-01-15T06:30:58;8.20;;;0.65;;
53479;SDS011;56133;51.012;-1.648;2023-01-15T06:33:24;7.97;;;0.65;;
53479;SDS011;56133;51.012;-1.648;2023-01-15T06:35:50;6.70;;;0.50;;
53479;SDS011;56133;51.012;-1.648;2023-01-15T06:38:16;4.70;;;0.57;;
53479;SDS011;56133;51.012;-1.648;2023-01-15T06:40:41;8.52;;;0.85;;
53479;SDS011;56133;51.012;-1.648;2023-01-15T06:43:08;7.25;;;0.90;;
53479;SDS011;56133;51.012;-1.648;2023-01-15T06:45:53;7.60;;;1.23;;
53479;SDS011;56133;51.012;-1.648;2023-01-15T06:48:37;6.28;;;0.90;;
53479;SDS011;56133;51.012;-1.648;2023-01-15T06:51:02;7.47;;;0.82;;
53479;SDS011;56133;51.012;-1.648;2023-01-15T06:53:28;6.65;;;0.50;;
53479;SDS011;56133;51.012;-1.648;2023-01-15T06:55:53;6.35;;;0.73;;
53479;SDS011;56133;51.012;-1.648;2023-01-15T06:58:18;11.02;;;0.60;;
53479;SDS011;56133;51.012;-1.648;2023-01-15T07:00:46;8.10;;;0.73;;
53479;SDS011;56133;51.012;-1.648;2023-01-15T07:03:18;8.05;;;1.00;;
53479;SDS011;56133;51.012;-1.648;2023-01-15T07:05:43;3.90;;;0.50;;
53479;SDS011;56133;51.012;-1.648;2023-01-15T07:08:09;7.55;;;0.95;;
53479;SDS011;56133;51.012;-1.648;2023-01-15T07:10:34;10.68;;;0.75;;
53479;SDS011;56133;51.012;-1.648;2023-01-15T07:13:00;7.95;;;0.82;;
53479;SDS011;56133;51.012;-1.648;2023-01-15T07:15:25;5.88;;;0.63;;
53479;SDS011;56133;51.012;-1.648;2023-01-15T07:17:54;5.63;;;0.80;;
53479;SDS011;56133;51.012;-1.648;2023-01-15T07:20:20;7.43;;;0.73;;
53479;SDS011;56133;51.012;-1.648;2023-01-15T07:22:49;11.50;;;1.30;;
53479;SDS011;56133;51.012;-1.648;2023-01-15T07:25:15;14.77;;;1.55;;
53479;SDS011;56133;51.012;-1.648;2023-01-15T07:27:41;11.75;;;1.30;;
53479;SDS011;56133;51.012;-1.648;2023-01-15T07:30:06;6.85;;;0.88;;
53479;SDS011;56133;51.012;-1.648;2023-01-15T07:32:32;9.20;;;0.88;;
53479;SDS011;56133;51.012;-1.648;2023-01-15T07:34:58;9.57;;;1.20;;
53479;SDS011;56133;51.012;-1.648;2023-01-15T07:37:24;6.20;;;0.70;;
53479;SDS011;56133;51.012;-1.648;2023-01-15T07:39:49;5.32;;;0.90;;
53479;SDS011;56133;51.012;-1.648;2023-01-15T07:42:14;12.18;;;1.45;;
53479;SDS011;56133;51.012;-1.648;2023-01-15T07:45:07;9.40;;;0.90;;
53479;SDS011;56133;51.012;-1.648;2023-01-15T07:47:52;7.82;;;1.10;;
53479;SDS011;56133;51.012;-1.648;2023-01-15T07:50:36;14.23;;;1.15;;
53479;SDS011;56133;51.012;-1.648;2023-01-15T07:53:02;7.22;;;0.77;;
53479;SDS011;56133;51.012;-1.648;2023-01-15T07:55:27;8.43;;;1.10;;
53479;SDS011;56133;51.012;-1.648;2023-01-15T07:57:53;6.88;;;0.85;;
53479;SDS011;56133;51.012;-1.648;2023-01-15T08:00:19;8.65;;;1.20;;
53479;SDS011;56133;51.012;-1.648;2023-01-15T08:02:46;8.98;;;0.63;;
53479;SDS011;56133;51.012;-1.648;2023-01-15T08:05:14;14.15;;;1.55;;
53479;SDS011;56133;51.012;-1.648;2023-01-15T08:07:40;7.70;;;1.00;;
53479;SDS011;56133;51.012;-1.648;2023-01-15T08:10:10;10.35;;;0.82;;
53479;SDS011;56133;51.012;-1.648;2023-01-15T08:12:37;11.27;;;0.98;;
53479;SDS011;56133;51.012;-1.648;2023-01-15T08:15:21;8.23;;;1.05;;
53479;SDS011;56133;51.012;-1.648;2023-01-15T08:17:47;10.63;;;1.52;;
53479;SDS011;56133;51.012;-1.648;2023-01-15T08:20:18;9.65;;;1.95;;
53479;SDS011;56133;51.012;-1.648;2023-01-15T08:22:46;10.07;;;1.33;;
53479;SDS011;56133;51.012;-1.648;2023-01-15T08:25:13;12.77;;;1.52;;
53479;SDS011;56133;51.012;-1.648;2023-01-15T08:27:41;12.63;;;1.33;;
53479;SDS011;56133;51.012;-1.648;2023-01-15T08:30:08;8.00;;;1.30;;
53479;SDS011;56133;51.012;-1.648;2023-01-15T08:32:35;7.13;;;1.50;;
53479;SDS011;56133;51.012;-1.648;2023-01-15T08:35:01;8.55;;;1.30;;
53479;SDS011;56133;51.012;-1.648;2023-01-15T08:37:26;11.85;;;1.98;;
53479;SDS011;56133;51.012;-1.648;2023-01-15T08:39:52;7.10;;;1.10;;
53479;SDS011;56133;51.012;-1.648;2023-01-15T08:42:20;10.02;;;1.00;;
53479;SDS011;56133;51.012;-1.648;2023-01-15T08:44:46;9.23;;;1.10;;
53479;SDS011;56133;51.012;-1.648;2023-01-15T08:47:11;7.85;;;1.13;;
53479;SDS011;56133;51.012;-1.648;2023-01-15T08:49:37;13.65;;;1.65;;
53479;SDS011;56133;51.012;-1.648;2023-01-15T08:52:02;11.05;;;1.25;;
53479;SDS011;56133;51.012;-1.648;2023-01-15T08:54:28;15.10;;;3.58;;
53479;SDS011;56133;51.012;-1.648;2023-01-15T08:56:53;15.95;;;2.70;;
53479;SDS011;56133;51.012;-1.648;2023-01-15T08:59:19;8.80;;;1.25;;
53479;SDS011;56133;51.012;-1.648;2023-01-15T09:01:44;11.32;;;3.30;;
53479;SDS011;56133;51.012;-1.648;2023-01-15T09:04:14;12.70;;;1.70;;
53479;SDS011;56133;51.012;-1.648;2023-01-15T09:06:41;8.35;;;2.30;;
53479;SDS011;56133;51.012;-1.648;2023-01-15T09:09:07;14.70;;;2.78;;
53479;SDS011;56133;51.012;-1.648;2023-01-15T09:11:33;14.10;;;2.05;;
53479;SDS011;56133;51.012;-1.648;2023-01-15T09:13:58;17.23;;;2.20;;
53479;SDS011;56133;51.012;-1.648;2023-01-15T09:16:24;13.13;;;2.65;;
53479;SDS011;56133;51.012;-1.648;2023-01-15T09:18:51;8.60;;;1.20;;
53479;SDS011;56133;51.012;-1.648;2023-01-15T09:21:17;13.80;;;3.72;;
53479;SDS011;56133;51.012;-1.648;2023-01-15T09:23:43;10.63;;;1.88;;
53479;SDS011;56133;51.012;-1.648;2023-01-15T09:26:20;12.65;;;2.03;;
53479;SDS011;56133;51.012;-1.648;2023-01-15T09:28:50;11.88;;;1.80;;
53479;SDS011;56133;51.012;-1.648;2023-01-15T09:31:15;8.02;;;1.42;;
53479;SDS011;56133;51.012;-1.648;2023-01-15T09:33:41;10.05;;;2.30;;
53479;SDS011;56133;51.012;-1.648;2023-01-15T09:36:11;9.73;;;1.45;;
53479;SDS011;56133;51.012;-1.648;2023-01-15T09:38:39;9.85;;;1.25;;
53479;SDS011;56133;51.012;-1.648;2023-01-15T09:41:07;10.38;;;1.30;;
53479;SDS011;56133;51.012;-1.648;2023-01-15T09:47:07;9.93;;;2.15;;
53479;SDS011;56133;51.012;-1.648;2023-01-15T09:55:12;9.80;;;1.77;;
53479;SDS011;56133;51.012;-1.648;2023-01-15T09:57:40;17.27;;;4.40;;
53479;SDS011;56133;51.012;-1.648;2023-01-15T10:00:11;11.65;;;1.75;;
53479;SDS011;56133;51.012;-1.648;2023-01-15T10:05:47;9.70;;;1.30;;
53479;SDS011;56133;51.012;-1.648;2023-01-15T10:08:22;11.02;;;1.40;;
53479;SDS011;56133;51.012;-1.648;2023-01-15T10:10:54;12.15;;;1.48;;
53479;SDS011;56133;51.012;-1.648;2023-01-15T10:13:40;9.65;;;1.33;;
53479;SDS011;56133;51.012;-1.648;2023-01-15T10:16:08;11.88;;;1.75;;
53479;SDS011;56133;51.012;-1.648;2023-01-15T10:18:35;9.57;;;1.95;;
53479;SDS011;56133;51.012;-1.648;2023-01-15T10:23:44;9.05;;;1.60;;
53479;SDS011;56133;51.012;-1.648;2023-01-15T10:26:35;7.97;;;1.20;;
53479;SDS011;56133;51.012;-1.648;2023-01-15T10:29:08;7.78;;;1.17;;
53479;SDS011;56133;51.012;-1.648;2023-01-15T10:37:39;8.30;;;1.08;;
53479;SDS011;56133;51.012;-1.648;2023-01-15T10:45:57;10.70;;;0.90;;
53479;SDS011;56133;51.012;-1.648;2023-01-15T10:48:37;5.93;;;0.95;;
53479;SDS011;56133;51.012;-1.648;2023-01-15T10:51:17;6.68;;;0.73;;
53479;SDS011;56133;51.012;-1.648;2023-01-15T10:53:48;9.57;;;0.75;;
53479;SDS011;56133;51.012;-1.648;2023-01-15T11:02:01;5.88;;;0.70;;
53479;SDS011;56133;51.012;-1.648;2023-01-15T11:04:38;3.78;;;0.55;;
53479;SDS011;56133;51.012;-1.648;2023-01-15T11:07:04;4.97;;;0.70;;
53479;SDS011;56133;51.012;-1.648;2023-01-15T11:09:33;4.68;;;0.70;;
53479;SDS011;56133;51.012;-1.648;2023-01-15T11:12:18;7.47;;;0.98;;
53479;SDS011;56133;51.012;-1.648;2023-01-15T11:15:12;5.80;;;0.73;;
53479;SDS011;56133;51.012;-1.648;2023-01-15T11:18:06;6.65;;;1.15;;
53479;SDS011;56133;51.012;-1.648;2023-01-15T11:20:56;3.13;;;0.68;;
53479;SDS011;56133;51.012;-1.648;2023-01-15T11:23:22;4.47;;;0.93;;
53479;SDS011;56133;51.012;-1.648;2023-01-15T11:25:49;6.07;;;0.93;;
53479;SDS011;56133;51.012;-1.648;2023-01-15T11:28:17;7.05;;;0.70;;
53479;SDS011;56133;51.012;-1.648;2023-01-15T11:30:53;5.40;;;0.98;;
53479;SDS011;56133;51.012;-1.648;2023-01-15T11:33:23;5.15;;;0.70;;
53479;SDS011;56133;51.012;-1.648;2023-01-15T11:35:52;7.18;;;0.90;;
53479;SDS011;56133;51.012;-1.648;2023-01-15T11:38:22;6.85;;;1.13;;
53479;SDS011;56133;51.012;-1.648;2023-01-15T11:40:56;7.78;;;0.90;;
53479;SDS011;56133;51.012;-1.648;2023-01-15T11:46:21;8.18;;;1.00;;
53479;SDS011;56133;51.012;-1.648;2023-01-15T11:49:12;7.72;;;1.55;;
53479;SDS011;56133;51.012;-1.648;2023-01-15T11:52:02;9.48;;;1.30;;
53479;SDS011;56133;51.012;-1.648;2023-01-15T11:54:30;8.27;;;1.05;;
53479;SDS011;56133;51.012;-1.648;2023-01-15T11:57:00;6.70;;;1.00;;
53479;SDS011;56133;51.012;-1.648;2023-01-15T11:59:26;8.52;;;1.20;;
53479;SDS011;56133;51.012;-1.648;2023-01-15T12:01:52;5.40;;;1.13;;
53479;SDS011;56133;51.012;-1.648;2023-01-15T12:06:48;11.57;;;2.03;;
53479;SDS011;56133;51.012;-1.648;2023-01-15T12:20:46;8.27;;;1.30;;
53479;SDS011;56133;51.012;-1.648;2023-01-15T12:31:32;7.15;;;1.35;;
53479;SDS011;56133;51.012;-1.648;2023-01-15T12:34:05;7.00;;;1.63;;
53479;SDS011;56133;51.012;-1.648;2023-01-15T12:36:50;10.43;;;4.13;;
53479;SDS011;56133;51.012;-1.648;2023-01-15T12:39:27;7.07;;;1.08;;
53479;SDS011;56133;51.012;-1.648;2023-01-15T12:42:03;9.15;;;1.50;;
53479;SDS011;56133;51.012;-1.648;2023-01-15T12:44:52;6.18;;;0.90;;
53479;SDS011;56133;51.012;-1.648;2023-01-15T12:53:22;7.28;;;1.25;;
53479;SDS011;56133;51.012;-1.648;2023-01-15T12:59:00;5.97;;;1.35;;
53479;SDS011;56133;51.012;-1.648;2023-01-15T13:01:45;7.50;;;1.95;;
53479;SDS011;56133;51.012;-1.648;2023-01-15T13:04:27;9.25;;;1.30;;
53479;SDS011;56133;51.012;-1.648;2023-01-15T13:07:21;6.68;;;0.90;;
53479;SDS011;56133;51.012;-1.648;2023-01-15T13:10:03;7.35;;;0.98;;
53479;SDS011;56133;51.012;-1.648;2023-01-15T13:12:35;7.10;;;1.25;;
53479;SDS011;56133;51.012;-1.648;2023-01-15T13:15:01;7.68;;;1.10;;
53479;SDS011;56133;51.012;-1.648;2023-01-15T13:17:31;7.13;;;1.35;;
53479;SDS011;56133;51.012;-1.648;2023-01-15T13:34:00;6.38;;;1.13;;
53479;SDS011;56133;51.012;-1.648;2023-01-15T13:36:36;6.85;;;1.00;;
53479;SDS011;56133;51.012;-1.648;2023-01-15T13:39:06;6.15;;;1.10;;
53479;SDS011;56133;51.012;-1.648;2023-01-15T13:41:39;8.35;;;1.15;;
53479;SDS011;56133;51.012;-1.648;2023-01-15T13:44:24;5.97;;;0.90;;
53479;SDS011;56133;51.012;-1.648;2023-01-15T13:46:59;4.90;;;0.80;;
53479;SDS011;56133;51.012;-1.648;2023-01-15T13:49:35;4.93;;;0.80;;
53479;SDS011;56133;51.012;-1.648;2023-01-15T13:52:03;3.67;;;0.70;;
53479;SDS011;56133;51.012;-1.648;2023-01-15T13:54:31;3.83;;;1.38;;
53479;SDS011;56133;51.012;-1.648;2023-01-15T13:57:08;3.88;;;1.02;;
53479;SDS011;56133;51.012;-1.648;2023-01-15T13:59:43;2.90;;;0.60;;
53479;SDS011;56133;51.012;-1.648;2023-01-15T14:02:51;2.90;;;0.88;;
53479;SDS011;56133;51.012;-1.648;2023-01-15T14:05:10;3.55;;;0.90;;
53479;SDS011;56133;51.012;-1.648;2023-01-15T14:07:47;2.63;;;0.63;;
53479;SDS011;56133;51.012;-1.648;2023-01-15T14:20:44;1.02;;;0.22;;
53479;SDS011;56133;51.012;-1.648;2023-01-15T14:29:00;2.65;;;0.50;;
53479;SDS011;56133;51.012;-1.648;2023-01-15T14:34:24;1.63;;;0.40;;
53479;SDS011;56133;51.012;-1.648;2023-01-15T14:47:33;3.55;;;1.63;;
53479;SDS011;56133;51.012;-1.648;2023-01-15T15:06:48;5.00;;;1.75;;
53479;SDS011;56133;51.012;-1.648;2023-01-15T15:09:23;4.38;;;1.92;;
53479;SDS011;56133;51.012;-1.648;2023-01-15T15:11:49;6.97;;;1.65;;
53479;SDS011;56133;51.012;-1.648;2023-01-15T15:14:35;4.45;;;1.88;;
53479;SDS011;56133;51.012;-1.648;2023-01-15T15:17:03;8.32;;;2.65;;
53479;SDS011;56133;51.012;-1.648;2023-01-15T15:19:38;12.27;;;6.78;;
53479;SDS011;56133;51.012;-1.648;2023-01-15T15:22:11;5.60;;;2.70;;
53479;SDS011;56133;51.012;-1.648;2023-01-15T15:24:48;2.15;;;0.70;;
53479;SDS011;56133;51.012;-1.648;2023-01-15T15:27:18;6.93;;;1.35;;
53479;SDS011;56133;51.012;-1.648;2023-01-15T15:29:46;8.63;;;2.88;;
53479;SDS011;56133;51.012;-1.648;2023-01-15T15:32:13;11.38;;;3.22;;
53479;SDS011;56133;51.012;-1.648;2023-01-15T15:34:42;5.07;;;2.20;;
53479;SDS011;56133;51.012;-1.648;2023-01-15T15:37:24;7.68;;;1.88;;
53479;SDS011;56133;51.012;-1.648;2023-01-15T15:39:54;5.57;;;0.90;;
53479;SDS011;56133;51.012;-1.648;2023-01-15T15:42:30;7.15;;;1.33;;
53479;SDS011;56133;51.012;-1.648;2023-01-15T15:45:18;4.93;;;1.20;;
53479;SDS011;56133;51.012;-1.648;2023-01-15T15:48:10;7.97;;;1.35;;
53479;SDS011;56133;51.012;-1.648;2023-01-15T15:50:54;5.47;;;1.45;;
53479;SDS011;56133;51.012;-1.648;2023-01-15T15:53:20;13.02;;;5.22;;
53479;SDS011;56133;51.012;-1.648;2023-01-15T15:55:45;11.40;;;1.50;;
53479;SDS011;56133;51.012;-1.648;2023-01-15T15:58:17;6.10;;;1.50;;
53479;SDS011;56133;51.012;-1.648;2023-01-15T16:00:49;5.65;;;1.30;;
53479;SDS011;56133;51.012;-1.648;2023-01-15T16:03:20;8.30;;;2.58;;
53479;SDS011;56133;51.012;-1.648;2023-01-15T16:05:53;8.55;;;2.92;;
53479;SDS011;56133;51.012;-1.648;2023-01-15T16:08:30;7.00;;;2.40;;
53479;SDS011;56133;51.012;-1.648;2023-01-15T16:10:59;8.02;;;2.10;;
53479;SDS011;56133;51.012;-1.648;2023-01-15T16:13:31;7.10;;;1.80;;
53479;SDS011;56133;51.012;-1.648;2023-01-15T16:15:57;7.95;;;3.10;;
53479;SDS011;56133;51.012;-1.648;2023-01-15T16:18:25;8.90;;;2.40;;
53479;SDS011;56133;51.012;-1.648;2023-01-15T16:20:55;7.72;;;2.40;;
53479;SDS011;56133;51.012;-1.648;2023-01-15T16:23:23;8.20;;;2.60;;
53479;SDS011;56133;51.012;-1.648;2023-01-15T16:26:33;10.45;;;3.85;;
53479;SDS011;56133;51.012;-1.648;2023-01-15T16:28:49;13.77;;;6.45;;
53479;SDS011;56133;51.012;-1.648;2023-01-15T16:31:18;15.50;;;6.63;;
53479;SDS011;56133;51.012;-1.648;2023-01-15T16:33:45;16.85;;;5.80;;
53479;SDS011;56133;51.012;-1.648;2023-01-15T16:36:11;24.55;;;9.00;;
53479;SDS011;56133;51.012;-1.648;2023-01-15T16:38:40;15.55;;;7.50;;
53479;SDS011;56133;51.012;-1.648;2023-01-15T16:41:24;8.27;;;2.88;;
53479;SDS011;56133;51.012;-1.648;2023-01-15T16:43:54;14.90;;;5.25;;
53479;SDS011;56133;51.012;-1.648;2023-01-15T16:46:23;18.83;;;8.43;;
53479;SDS011;56133;51.012;-1.648;2023-01-15T16:49:16;16.30;;;8.00;;
53479;SDS011;56133;51.012;-1.648;2023-01-15T16:51:44;13.63;;;7.22;;
53479;SDS011;56133;51.012;-1.648;2023-01-15T16:56:55;18.13;;;7.60;;
53479;SDS011;56133;51.012;-1.648;2023-01-15T17:01:50;14.68;;;5.50;;
53479;SDS011;56133;51.012;-1.648;2023-01-15T17:04:30;28.98;;;13.35;;
53479;SDS011;56133;51.012;-1.648;2023-01-15T17:07:03;14.05;;;6.60;;
53479;SDS011;56133;51.012;-1.648;2023-01-15T17:09:30;9.88;;;4.20;;
53479;SDS011;56133;51.012;-1.648;2023-01-15T17:11:57;12.40;;;4.30;;
53479;SDS011;56133;51.012;-1.648;2023-01-15T17:14:30;10.45;;;5.30;;
53479;SDS011;56133;51.012;-1.648;2023-01-15T17:19:42;13.43;;;5.07;;
53479;SDS011;56133;51.012;-1.648;2023-01-15T17:22:13;13.27;;;4.30;;
53479;SDS011;56133;51.012;-1.648;2023-01-15T17:24:46;13.65;;;5.55;;
53479;SDS011;56133;51.012;-1.648;2023-01-15T17:27:16;15.95;;;6.10;;
53479;SDS011;56133;51.012;-1.648;2023-01-15T17:29:42;15.32;;;5.65;;
53479;SDS011;56133;51.012;-1.648;2023-01-15T17:34:55;13.30;;;4.97;;